Time;durP1;ratioP1;P1;durP2;ratioP2;P2;SDS_P1;SDS_P2;PMS_P1;PMS_P2;Temp;Humidity;BMP_temperature;BMP_pressure;BME280_temperature;BME280_humidity;BME280_pressure;Samples;Min_cycle;Max_cycle;Signal;HPM_P1;HPM_P2
2022/11/04 00:01:04;;;;;;;1999.90;999.90;;;;;;;10.51;100.00;99467.75;5023990;28;20038;-71
2022/11/04 00:03:30;;;;;;;1999.90;999.90;;;;;;;10.46;100.00;99465.22;5023098;28;20030;-71
2022/11/04 00:05:59;;;;;;;1999.90;999.90;;;;;;;10.39;100.00;99458.34;5029265;28;20132;-71
2022/11/04 00:08:24;;;;;;;1999.90;999.90;;;;;;;10.28;100.00;99455.06;5029526;28;20057;-71
2022/11/04 00:13:41;;;;;;;1999.90;999.90;;;;;;;10.14;100.00;99451.81;5025382;28;20134;-71
2022/11/04 00:18:51;;;;;;;1999.90;999.90;;;;;;;10.10;100.00;99456.31;5025874;28;20103;-71
2022/11/04 00:29:28;;;;;;;1999.90;999.90;;;;;;;10.10;100.00;99443.97;5023326;28;20030;-71
2022/11/04 00:34:37;;;;;;;1999.90;999.90;;;;;;;10.07;100.00;99454.59;5023080;28;20128;-71
2022/11/04 00:37:02;;;;;;;1999.90;999.90;;;;;;;10.09;100.00;99451.94;5024996;28;20037;-71
2022/11/04 00:39:28;;;;;;;1999.90;999.90;;;;;;;10.09;100.00;99450.16;5025603;28;20049;-71
2022/11/04 00:41:53;;;;;;;1999.90;999.90;;;;;;;10.09;100.00;99447.53;5021988;28;20128;-71
2022/11/04 00:44:19;;;;;;;1999.90;999.90;;;;;;;10.03;100.00;99447.69;5024862;28;20045;-71
2022/11/04 00:46:44;;;;;;;1999.90;999.90;;;;;;;9.99;100.00;99455.66;5020476;28;20034;-71
2022/11/04 00:49:10;;;;;;;1999.90;999.90;;;;;;;9.95;100.00;99454.84;5021107;28;20048;-71
2022/11/04 00:51:35;;;;;;;1999.90;999.90;;;;;;;9.91;100.00;99452.34;5025403;28;20100;-71
2022/11/04 00:54:00;;;;;;;1999.90;999.90;;;;;;;9.85;100.00;99455.94;5022547;28;20042;-71
2022/11/04 00:56:26;;;;;;;1999.90;999.90;;;;;;;9.81;100.00;99460.41;5024377;28;20049;-71
2022/11/04 00:58:51;;;;;;;1999.90;999.90;;;;;;;9.76;100.00;99453.50;5024554;28;20045;-71
2022/11/04 01:01:18;;;;;;;1999.90;999.90;;;;;;;9.72;100.00;99451.81;5021216;28;20037;-71
2022/11/04 01:03:44;;;;;;;1999.90;999.90;;;;;;;9.67;100.00;99449.28;5023887;28;20111;-71
2022/11/04 01:06:10;;;;;;;1999.90;999.90;;;;;;;9.61;100.00;99442.34;5028091;28;20043;-71
2022/11/04 01:08:35;;;;;;;1999.90;999.90;;;;;;;9.58;100.00;99457.34;5023256;28;20034;-71
2022/11/04 01:11:05;;;;;;;1999.90;999.90;;;;;;;9.58;100.00;99449.47;5025005;28;20042;-71
2022/11/04 01:13:31;;;;;;;1999.90;999.90;;;;;;;9.55;100.00;99439.84;5020906;28;20044;-71
2022/11/04 01:16:00;;;;;;;1999.90;999.90;;;;;;;9.58;100.00;99445.06;5021819;28;20587;-71
2022/11/04 01:18:26;;;;;;;1999.90;999.90;;;;;;;9.58;100.00;99442.41;5022832;28;20034;-71
2022/11/04 01:20:52;;;;;;;1999.90;999.90;;;;;;;9.64;100.00;99444.94;5026890;28;20033;-71
2022/11/04 01:23:17;;;;;;;1999.90;999.90;;;;;;;9.72;100.00;99433.38;5021152;28;20018;-71
2022/11/04 01:25:42;;;;;;;1999.90;999.90;;;;;;;9.75;100.00;99426.28;5020111;28;20404;-71
2022/11/04 01:28:08;;;;;;;1999.90;999.90;;;;;;;9.80;100.00;99434.09;5021199;28;20626;-71
2022/11/04 01:30:33;;;;;;;1999.90;999.90;;;;;;;9.81;100.00;99428.78;5023191;28;20049;-71
2022/11/04 01:32:59;;;;;;;1999.90;999.90;;;;;;;9.86;100.00;99429.56;5022268;28;20037;-71
2022/11/04 01:35:24;;;;;;;1999.90;999.90;;;;;;;9.87;100.00;99435.69;5021583;28;20069;-72
2022/11/04 01:37:49;;;;;;;1999.90;999.90;;;;;;;9.85;100.00;99451.56;5025807;28;20080;-71
2022/11/04 01:40:15;;;;;;;1999.90;999.90;;;;;;;9.86;100.00;99450.66;5029173;28;20040;-71
2022/11/04 01:42:40;;;;;;;1999.90;999.90;;;;;;;9.93;100.00;99439.97;5023815;28;20045;-71
2022/11/04 01:45:13;;;;;;;1999.90;999.90;;;;;;;9.84;100.00;99438.41;5022029;28;20126;-71
2022/11/04 01:47:48;;;;;;;1999.90;999.90;;;;;;;9.87;100.00;99441.81;5022078;28;20111;-71
2022/11/04 01:50:21;;;;;;;1999.90;999.90;;;;;;;9.88;100.00;99437.44;5026662;28;20033;-71
2022/11/04 01:53:13;;;;;;;1999.90;999.90;;;;;;;9.84;100.00;99430.50;5024858;28;20496;-71
2022/11/04 01:55:43;;;;;;;1999.90;999.90;;;;;;;9.84;100.00;99438.41;5022338;28;20044;-71
2022/11/04 01:58:12;;;;;;;1999.90;999.90;;;;;;;9.90;100.00;99435.63;5020295;28;20036;-71
2022/11/04 02:00:39;;;;;;;1999.90;999.90;;;;;;;9.95;100.00;99443.44;5022935;28;20041;-71
2022/11/04 02:03:09;;;;;;;1999.90;999.90;;;;;;;9.95;100.00;99446.06;5021720;28;20110;-71
2022/11/04 02:05:35;;;;;;;1999.90;999.90;;;;;;;9.90;100.00;99435.63;5020714;28;20103;-71
2022/11/04 02:08:03;;;;;;;1999.90;999.90;;;;;;;9.95;100.00;99428.50;5023494;28;20046;-71
2022/11/04 02:10:29;;;;;;;1999.90;999.90;;;;;;;10.01;100.00;99438.06;5023045;28;20030;-71
2022/11/04 02:12:57;;;;;;;1999.90;999.90;;;;;;;10.04;100.00;99428.31;5021074;28;20091;-71
2022/11/04 02:16:01;;;;;;;1999.90;999.90;;;;;;;10.09;100.00;99429.06;5023204;28;20037;-72
2022/11/04 02:18:51;;;;;;;1999.90;999.90;;;;;;;10.09;100.00;99429.06;5020205;28;20042;-72
2022/11/04 02:21:53;;;;;;;1999.90;999.90;;;;;;;10.00;100.00;99441.56;5027195;28;20083;-71
2022/11/04 02:24:34;;;;;;;1999.90;999.90;;;;;;;9.92;100.00;99457.56;5021836;28;20061;-72
2022/11/04 02:27:24;;;;;;;1999.90;999.90;;;;;;;9.99;100.00;99434.59;5020408;28;20502;-72
2022/11/04 02:30:01;;;;;;;1999.90;999.90;;;;;;;10.04;100.00;99428.31;5020789;28;20627;-72
2022/11/04 02:32:36;;;;;;;1999.90;999.90;;;;;;;10.08;100.00;99427.31;5019887;28;20035;-72
2022/11/04 02:35:30;;;;;;;1999.90;999.90;;;;;;;10.16;100.00;99416.63;5023126;28;20079;-72
2022/11/04 02:38:12;;;;;;;1999.90;999.90;;;;;;;10.28;100.00;99397.06;5021676;28;20057;-72
2022/11/04 02:40:49;;;;;;;1999.90;999.90;;;;;;;10.41;100.00;99419.59;5035797;28;20041;-71
2022/11/04 02:43:24;;;;;;;1999.90;999.90;;;;;;;10.52;100.00;99404.38;5020191;28;20125;-72
2022/11/04 02:45:55;;;;;;;1999.90;999.90;;;;;;;10.64;100.00;99397.09;5019690;28;20485;-71
2022/11/04 02:48:30;;;;;;;1999.90;999.90;;;;;;;10.71;100.00;99407.44;5020718;28;20038;-71
2022/11/04 02:51:04;;;;;;;1999.90;999.90;;;;;;;10.79;100.00;99401.09;5024335;28;20116;-71
2022/11/04 02:53:40;;;;;;;1999.90;999.90;;;;;;;10.84;100.00;99415.91;5020705;28;20485;-71
2022/11/04 02:56:08;;;;;;;1999.90;999.90;;;;;;;10.82;100.00;99417.75;5019865;28;20428;-72
2022/11/04 02:58:44;;;;;;;1999.90;999.90;;;;;;;10.80;100.00;99414.28;5021572;28;20185;-71
2022/11/04 03:01:14;;;;;;;1999.90;999.90;;;;;;;10.87;100.00;99430.81;5022924;28;20064;-71
2022/11/04 03:03:46;;;;;;;1999.90;999.90;;;;;;;10.89;100.00;99423.72;5021875;28;20091;-71
2022/11/04 03:06:15;;;;;;;1999.90;999.90;;;;;;;10.93;100.00;99426.25;5026461;28;20029;-72
2022/11/04 03:08:47;;;;;;;1999.90;999.90;;;;;;;10.98;100.00;99420.88;5027117;28;20050;-71
2022/11/04 03:11:16;;;;;;;1999.90;999.90;;;;;;;11.04;100.00;99430.41;5021806;28;20038;-72
2022/11/04 03:14:03;;;;;;;1999.90;999.90;;;;;;;11.09;100.00;99439.06;5020605;28;20044;-71
2022/11/04 03:16:46;;;;;;;1999.90;999.90;;;;;;;11.11;100.00;99453.13;5032042;28;20033;-71
2022/11/04 03:19:23;;;;;;;;;;;;;;;11.08;100.00;99443.50;5027609;28;20049;-72
2022/11/04 03:22:02;;;;;;;1999.90;999.90;;;;;;;11.03;100.00;99457.69;5019448;28;20330;-71
2022/11/04 03:24:29;;;;;;;1999.90;999.90;;;;;;;11.06;100.00;99447.09;5020724;28;20038;-71
2022/11/04 03:27:01;;;;;;;1999.90;999.90;;;;;;;11.05;100.00;99448.81;5025733;28;20046;-71
2022/11/04 03:29:32;;;;;;;1999.90;999.90;;;;;;;11.06;100.00;99447.09;5023018;28;20045;-72
2022/11/04 03:32:18;;;;;;;1999.90;999.90;;;;;;;11.07;100.00;99444.38;5020629;28;20045;-72
2022/11/04 03:34:44;;;;;;;1999.90;999.90;;;;;;;11.08;100.00;99447.88;5020134;28;20068;-72
2022/11/04 03:37:09;;;;;;;1999.90;999.90;;;;;;;11.08;100.00;99450.53;5020652;28;20674;-71
2022/11/04 03:39:35;;;;;;;1999.90;999.90;;;;;;;11.10;100.00;99440.78;5021259;28;20190;-72
2022/11/04 03:42:18;;;;;;;1999.90;999.90;;;;;;;11.06;100.00;99439.16;5022918;28;20050;-71
2022/11/04 03:44:47;;;;;;;1999.90;999.90;;;;;;;11.03;100.00;99447.13;5021002;28;20045;-71
2022/11/04 03:47:13;;;;;;;1999.90;999.90;;;;;;;11.06;100.00;99442.66;5019143;28;20504;-71
2022/11/04 03:49:38;;;;;;;1999.90;999.90;;;;;;;11.10;100.00;99451.34;5024749;28;20033;-71
2022/11/04 03:52:04;;;;;;;1999.90;999.90;;;;;;;11.11;100.00;99451.34;5022114;28;20049;-71
2022/11/04 03:54:34;;;;;;;1999.90;999.90;;;;;;;11.14;100.00;99445.97;5020030;28;20034;-71
2022/11/04 03:57:33;;;;;;;1999.90;999.90;;;;;;;11.18;100.00;99441.47;5019915;28;20128;-71
2022/11/04 04:00:05;;;;;;;1999.90;999.90;;;;;;;11.05;100.00;99430.34;5025649;28;20040;-71
2022/11/04 04:03:01;;;;;;;1999.90;999.90;;;;;;;11.10;100.00;99435.50;5023662;28;20038;-71
2022/11/04 04:05:34;;;;;;;1999.90;999.90;;;;;;;11.15;100.00;99436.25;5024056;28;20543;-71
2022/11/04 04:08:30;;;;;;;1999.90;999.90;;;;;;;11.22;100.00;99429.94;5022348;28;20044;-72
2022/11/04 04:11:05;;;;;;;1999.90;999.90;;;;;;;11.25;100.00;99423.69;5023156;28;20030;-72
2022/11/04 04:13:36;;;;;;;1999.90;999.90;;;;;;;11.30;100.00;99430.59;5022879;28;20077;-72
2022/11/04 04:16:19;;;;;;;1999.90;999.90;;;;;;;11.27;100.00;99441.25;5022041;28;20041;-72
2022/11/04 04:18:53;;;;;;;1999.90;999.90;;;;;;;11.28;100.00;99439.47;5022310;28;20037;-71
2022/11/04 04:21:23;;;;;;;1999.90;999.90;;;;;;;11.26;100.00;99450.06;5030225;28;20046;-71
2022/11/04 04:29:24;;;;;;;1999.90;999.90;;;;;;;11.12;100.00;99445.13;5023231;28;20037;-71
2022/11/04 04:31:56;;;;;;;1999.90;999.90;;;;;;;11.13;100.00;99449.53;5029500;28;20480;-72
2022/11/04 04:34:26;;;;;;;1999.90;999.90;;;;;;;11.12;100.00;99455.69;5024995;28;20029;-71
2022/11/04 04:37:02;;;;;;;1999.90;999.90;;;;;;;11.10;100.00;99470.69;5022811;28;20040;-71
2022/11/04 04:45:31;;;;;;;1999.90;999.90;;;;;;;11.19;100.00;99459.06;5024620;28;20040;-72
2022/11/04 04:47:56;;;;;;;1999.90;999.90;;;;;;;11.23;100.00;99465.13;5018696;28;20042;-72
2022/11/04 04:50:24;;;;;;;1999.90;999.90;;;;;;;11.24;100.00;99470.38;5028150;28;20440;-72
2022/11/04 04:52:52;;;;;;;1999.90;999.90;;;;;;;11.24;100.00;99467.75;5027934;28;20052;-72
2022/11/04 04:55:19;;;;;;;1999.90;999.90;;;;;;;11.34;100.00;99477.16;5023003;28;20069;-72
2022/11/04 04:57:44;;;;;;;1999.90;999.90;;;;;;;11.39;100.00;99477.88;5021963;28;20069;-72
2022/11/04 05:00:13;;;;;;;1999.90;999.90;;;;;;;11.50;100.00;99474.09;5024261;28;20041;-72
2022/11/04 05:02:39;;;;;;;1999.90;999.90;;;;;;;11.54;100.00;99475.75;5022784;28;20099;-72
2022/11/04 05:05:06;;;;;;;1999.90;999.90;;;;;;;11.59;100.00;99469.44;5022135;28;20489;-72
2022/11/04 05:07:31;;;;;;;1999.90;999.90;;;;;;;11.62;100.00;99486.97;5028114;28;20033;-72
2022/11/04 05:09:56;;;;;;;1999.90;999.90;;;;;;;11.73;100.00;99492.81;5025924;28;20033;-71
2022/11/04 05:12:22;;;;;;;1999.90;999.90;;;;;;;11.77;100.00;99498.91;5021303;28;20053;-72
2022/11/04 05:14:47;;;;;;;1999.90;999.90;;;;;;;11.81;100.00;99501.41;5023745;28;20041;-71
2022/11/04 05:17:14;;;;;;;1999.90;999.90;;;;;;;11.84;100.00;99505.75;5022547;28;20096;-71
2022/11/04 05:19:39;;;;;;;1999.90;999.90;;;;;;;11.87;100.00;99507.47;5026153;28;20040;-71
2022/11/04 05:22:05;;;;;;;1999.90;999.90;;;;;;;11.85;100.00;99518.94;5029039;28;20109;-71
2022/11/04 05:24:30;;;;;;;1999.90;999.90;;;;;;;11.83;100.00;99520.75;5025490;28;20072;-70
2022/11/04 05:26:55;;;;;;;1999.90;999.90;;;;;;;11.84;100.00;99514.56;5023962;28;20084;-70
2022/11/04 05:29:21;;;;;;;1999.90;999.90;;;;;;;11.80;100.00;99519.97;5024630;28;20655;-70
2022/11/04 05:31:46;;;;;;;1999.90;999.90;;;;;;;11.81;100.00;99516.41;5020695;28;20084;-70
2022/11/04 05:34:13;;;;;;;1999.90;999.90;;;;;;;11.85;100.00;99518.06;5022960;28;20044;-70
2022/11/04 05:36:38;;;;;;;1999.90;999.90;;;;;;;11.91;100.00;99523.22;5022451;28;20096;-71
2022/11/04 05:39:04;;;;;;;1999.90;999.90;;;;;;;11.93;100.00;99523.19;5033334;28;20037;-71
2022/11/04 05:41:29;;;;;;;1999.90;999.90;;;;;;;11.93;100.00;99513.47;5027126;28;20034;-71
2022/11/04 05:44:00;;;;;;;1999.90;999.90;;;;;;;11.89;100.00;99503.00;5029368;28;20079;-71
2022/11/04 05:46:26;;;;;;;1999.90;999.90;;;;;;;11.83;100.00;99512.81;5026156;28;20037;-71
2022/11/04 05:48:51;;;;;;;1999.90;999.90;;;;;;;11.81;100.00;99533.13;5030447;28;20029;-71
2022/11/04 05:51:21;;;;;;;1999.90;999.90;;;;;;;11.80;100.00;99519.97;5029079;28;20037;-71
2022/11/04 05:53:46;;;;;;;1999.90;999.90;;;;;;;11.81;100.00;99519.91;5025839;28;20074;-71
2022/11/04 05:56:11;;;;;;;1999.90;999.90;;;;;;;11.79;100.00;99512.97;5029623;28;20115;-71
2022/11/04 05:58:36;;;;;;;1999.90;999.90;;;;;;;11.78;100.00;99504.13;5028615;28;20112;-71
2022/11/04 06:01:21;;;;;;;1999.90;999.90;;;;;;;11.83;100.00;99509.31;5026051;28;20060;-71
2022/11/04 06:03:46;;;;;;;1999.90;999.90;;;;;;;11.89;100.00;99529.47;5024931;28;20032;-71
2022/11/04 06:06:12;;;;;;;1999.90;999.90;;;;;;;11.89;100.00;99534.75;5020938;28;20045;-71
2022/11/04 06:08:37;;;;;;;1999.90;999.90;;;;;;;11.79;100.00;99534.97;5023977;28;20043;-71
2022/11/04 06:11:04;;;;;;;1999.90;999.90;;;;;;;11.73;100.00;99529.84;5020675;28;20041;-71
2022/11/04 06:13:29;;;;;;;1999.90;999.90;;;;;;;11.73;100.00;99535.13;5019106;28;20046;-71
2022/11/04 06:15:55;;;;;;;1999.90;999.90;;;;;;;11.75;100.00;99528.03;5021749;28;20029;-71
2022/11/04 06:18:20;;;;;;;1999.90;999.90;;;;;;;11.82;100.00;99534.03;5018796;28;20041;-71
2022/11/04 06:20:45;;;;;;;1999.90;999.90;;;;;;;11.85;100.00;99542.72;5025000;28;20038;-71
2022/11/04 06:23:11;;;;;;;1999.90;999.90;;;;;;;11.92;100.00;99546.13;5021850;28;20034;-71
2022/11/04 06:25:36;;;;;;;1999.90;999.90;;;;;;;11.97;100.00;99548.63;5022742;28;20120;-71
2022/11/04 06:28:01;;;;;;;1999.90;999.90;;;;;;;12.00;100.00;99562.66;5022368;28;20041;-71
2022/11/04 06:30:27;;;;;;;1999.90;999.90;;;;;;;11.97;100.00;99559.19;5019980;28;20074;-71
2022/11/04 06:32:52;;;;;;;1999.90;999.90;;;;;;;11.88;100.00;99538.31;5027666;28;20144;-71
2022/11/04 06:35:17;;;;;;;1999.90;999.90;;;;;;;11.82;100.00;99519.03;5025657;28;20500;-71
2022/11/04 06:37:43;;;;;;;1999.90;999.90;;;;;;;11.62;100.00;99502.84;5021823;28;20041;-71
2022/11/04 06:40:08;;;;;;;1999.90;999.90;;;;;;;11.41;100.00;99491.06;5021088;28;20045;-71
2022/11/04 06:42:34;;;;;;;1999.90;999.90;;;;;;;11.21;100.00;99482.78;5020770;28;20037;-71
2022/11/04 06:44:59;;;;;;;1999.90;999.90;;;;;;;11.08;100.00;99472.53;5027920;28;20041;-71
2022/11/04 06:47:24;;;;;;;1999.90;999.90;;;;;;;10.97;100.00;99483.34;5028718;28;20038;-71
2022/11/04 06:49:49;;;;;;;1999.90;999.90;;;;;;;10.97;100.00;99503.59;5026387;28;20041;-71
2022/11/04 06:52:15;;;;;;;1999.90;999.90;;;;;;;11.01;100.00;99512.34;5026650;28;20041;-72
2022/11/04 06:54:40;;;;;;;1999.90;999.90;;;;;;;11.06;100.00;99513.09;5025648;28;20045;-71
2022/11/04 06:57:05;;;;;;;1999.90;999.90;;;;;;;11.12;100.00;99520.84;5028966;28;20048;-71
2022/11/04 06:59:31;;;;;;;1999.90;999.90;;;;;;;11.12;100.00;99526.13;5030129;28;20041;-71
2022/11/04 07:01:56;;;;;;;1999.90;999.90;;;;;;;11.14;100.00;99524.34;5028445;28;20034;-71
2022/11/04 07:04:21;;;;;;;1999.90;999.90;;;;;;;11.19;100.00;99511.88;5025783;28;20041;-71
2022/11/04 07:06:47;;;;;;;1999.90;999.90;;;;;;;11.20;100.00;99503.03;5022235;28;20037;-71
2022/11/04 07:09:13;;;;;;;1999.90;999.90;;;;;;;11.19;100.00;99511.88;5023640;28;20034;-71
2022/11/04 07:11:40;;;;;;;1999.90;999.90;;;;;;;11.24;100.00;99512.63;5030144;28;20038;-71
2022/11/04 07:14:05;;;;;;;1999.90;999.90;;;;;;;11.24;100.00;99504.72;5018471;28;20455;-71
2022/11/04 07:16:30;;;;;;;1999.90;999.90;;;;;;;11.28;100.00;99490.50;5024842;28;20033;-71
2022/11/04 07:18:56;;;;;;;1999.90;999.90;;;;;;;11.34;100.00;99494.75;5020709;28;20089;-71
2022/11/04 07:21:21;;;;;;;1999.90;999.90;;;;;;;11.38;100.00;99505.22;5027106;28;20033;-71
2022/11/04 07:23:47;;;;;;;1999.90;999.90;;;;;;;11.45;100.00;99497.13;5026391;28;20490;-71
2022/11/04 07:26:12;;;;;;;1999.90;999.90;;;;;;;11.60;100.00;99499.34;5023034;28;20045;-71
2022/11/04 07:28:38;;;;;;;1999.90;999.90;;;;;;;11.71;100.00;99494.66;5022878;28;20034;-71
2022/11/04 07:31:04;;;;;;;1999.90;999.90;;;;;;;11.86;100.00;99503.97;5023279;28;20267;-71
2022/11/04 07:33:31;;;;;;;1999.90;999.90;;;;;;;12.09;100.00;99526.25;5030042;28;20550;-72
2022/11/04 07:35:57;;;;;;;1999.90;999.90;;;;;;;12.17;100.00;99530.41;5025808;28;20036;-71
2022/11/04 07:38:22;;;;;;;1999.90;999.90;;;;;;;12.33;100.00;99524.69;5025333;28;20508;-71
2022/11/04 07:40:48;;;;;;;1999.90;999.90;;;;;;;12.34;100.00;99522.00;5030998;28;20036;-71
2022/11/04 07:43:14;;;;;;;1999.90;999.90;;;;;;;12.41;100.00;99525.31;5029361;28;20026;-71
2022/11/04 07:45:39;;;;;;;1999.90;999.90;;;;;;;12.39;100.00;99519.19;5028514;28;20094;-71
2022/11/04 07:48:05;;;;;;;1999.90;999.90;;;;;;;12.33;100.00;99514.09;5025077;28;20049;-71
2022/11/04 07:50:30;;;;;;;1999.90;999.90;;;;;;;12.39;100.00;99517.44;5025477;28;20037;-71
2022/11/04 07:52:55;;;;;;;1999.90;999.90;;;;;;;12.26;100.00;99509.00;5025258;28;20040;-71
2022/11/04 07:55:21;;;;;;;1999.90;999.90;;;;;;;12.24;100.00;99510.81;5026311;28;20044;-71
2022/11/04 07:57:47;;;;;;;1999.90;999.90;;;;;;;12.27;100.00;99525.75;5027305;28;20049;-71
2022/11/04 08:00:14;;;;;;;1999.90;999.90;;;;;;;12.25;100.00;99528.41;5025646;28;20087;-71
2022/11/04 08:02:43;;;;;;;1999.90;999.90;;;;;;;12.20;100.00;99532.97;5028175;28;20033;-71
2022/11/04 08:05:08;;;;;;;1999.90;999.90;;;;;;;12.24;100.00;99531.97;5022733;28;20038;-71
2022/11/04 08:07:33;;;;;;;1999.90;999.90;;;;;;;12.36;100.00;99530.75;5024451;28;20408;-71
2022/11/04 08:09:59;;;;;;;1999.90;999.90;;;;;;;12.50;100.00;99527.72;5023930;28;20117;-71
2022/11/04 08:12:26;;;;;;;1999.90;999.90;;;;;;;12.56;100.00;99524.88;5024373;28;20117;-71
2022/11/04 08:14:51;;;;;;;1999.90;999.90;;;;;;;12.55;100.00;99531.09;5023684;28;20033;-71
2022/11/04 08:17:17;;;;;;;1999.90;999.90;;;;;;;12.50;100.00;99531.22;5021736;28;20049;-71
2022/11/04 08:19:42;;;;;;;1999.90;999.90;;;;;;;12.47;100.00;99527.78;5028118;28;20041;-71
2022/11/04 08:22:07;;;;;;;1999.90;999.90;;;;;;;12.53;100.00;99530.25;5025907;28;20041;-71
2022/11/04 08:24:34;;;;;;;1999.90;999.90;;;;;;;12.45;100.00;99538.44;5024051;28;20034;-71
2022/11/04 08:26:59;;;;;;;1999.90;999.90;;;;;;;12.33;100.00;99535.28;5026448;28;20044;-71
2022/11/04 08:29:24;;;;;;;1999.90;999.90;;;;;;;12.33;100.00;99533.47;5027498;28;20058;-71
2022/11/04 08:31:49;;;;;;;1999.90;999.90;;;;;;;12.24;100.00;99526.69;5024789;28;20044;-71
2022/11/04 08:34:17;;;;;;;1999.90;999.90;;;;;;;12.32;100.00;99528.25;5031034;28;20040;-71
2022/11/04 08:36:44;;;;;;;1999.90;999.90;;;;;;;12.34;100.00;99523.75;5031860;28;20038;-71
2022/11/04 08:39:10;;;;;;;1999.90;999.90;;;;;;;12.42;100.00;99532.38;5031433;28;20058;-71
2022/11/04 08:41:39;;;;;;;1999.90;999.90;;;;;;;12.61;100.00;99551.22;5032233;28;20399;-71
2022/11/04 08:44:05;;;;;;;1999.90;999.90;;;;;;;12.73;100.00;99553.47;5032163;28;20030;-71
2022/11/04 08:46:38;;;;;;;1999.90;999.90;;;;;;;12.85;100.00;99554.88;5031881;28;20041;-71
2022/11/04 08:49:04;;;;;;;1999.90;999.90;;;;;;;12.93;100.00;99558.16;5031287;28;20491;-71
2022/11/04 08:51:32;;;;;;;1999.90;999.90;;;;;;;12.92;100.00;99551.13;5032263;28;20834;-71
2022/11/04 08:53:58;;;;;;;1999.90;999.90;;;;;;;12.88;100.00;99539.75;5028044;28;20053;-71
2022/11/04 08:56:29;;;;;;;1999.90;999.90;;;;;;;12.88;100.00;99533.59;5031588;28;20465;-71
2022/11/04 08:58:57;;;;;;;1999.90;999.90;;;;;;;12.78;100.00;99542.72;5029775;28;20036;-71
2022/11/04 09:01:24;;;;;;;1999.90;999.90;;;;;;;12.70;100.00;99543.81;5028250;28;20052;-71
2022/11/04 09:03:50;;;;;;;1999.90;999.90;;;;;;;12.58;100.00;99551.31;5031377;28;20036;-71
2022/11/04 09:06:27;;;;;;;1999.90;999.90;;;;;;;12.53;100.00;99554.09;5030260;28;20042;-71
2022/11/04 09:09:00;;;;;;;1999.90;999.90;;;;;;;12.43;100.00;99553.47;5032731;28;20033;-71
2022/11/04 09:11:26;;;;;;;1999.90;999.90;;;;;;;12.34;100.00;99555.50;5028286;28;20389;-71
2022/11/04 09:13:52;;;;;;;1999.90;999.90;;;;;;;12.34;100.00;99547.56;5032662;28;20037;-71
2022/11/04 09:16:17;;;;;;;1999.90;999.90;;;;;;;12.33;100.00;99535.28;5024595;28;20049;-71
2022/11/04 09:18:42;;;;;;;1999.90;999.90;;;;;;;12.26;100.00;99538.09;5027190;28;20037;-71
2022/11/04 09:21:09;;;;;;;1999.90;999.90;;;;;;;12.25;100.00;99539.00;5023688;28;20048;-71
2022/11/04 09:23:35;;;;;;;1999.90;999.90;;;;;;;12.27;100.00;99550.41;5023618;28;20064;-71
2022/11/04 09:26:06;;;;;;;1999.90;999.90;;;;;;;12.24;100.00;99541.69;5027279;28;20639;-71
2022/11/04 09:28:31;;;;;;;1999.90;999.90;;;;;;;12.27;100.00;99544.25;5029439;28;20029;-71
2022/11/04 09:30:57;;;;;;;1999.90;999.90;;;;;;;12.31;100.00;99547.66;5020815;28;20060;-71
2022/11/04 09:33:22;;;;;;;1999.90;999.90;;;;;;;12.24;100.00;99555.78;5033904;28;20396;-71
2022/11/04 09:35:55;;;;;;;1999.90;999.90;;;;;;;12.27;100.00;99560.13;5025172;28;20041;-71
2022/11/04 09:38:20;;;;;;;1999.90;999.90;;;;;;;12.26;100.00;99559.28;5026039;28;20095;-71
2022/11/04 09:40:47;;;;;;;1999.90;999.90;;;;;;;12.27;100.00;99561.00;5023536;28;20085;-71
2022/11/04 09:43:24;;;;;;;1999.90;999.90;;;;;;;12.27;100.00;99553.06;5023034;28;20044;-71
2022/11/04 09:45:49;;;;;;;1999.90;999.90;;;;;;;12.34;100.00;99552.88;5023753;28;20033;-71
2022/11/04 09:48:32;;;;;;;1999.90;999.90;;;;;;;12.26;100.00;99551.34;5022086;28;20045;-71
2022/11/04 09:51:01;;;;;;;1999.90;999.90;;;;;;;12.22;100.00;99533.78;5030267;28;20049;-71
2022/11/04 09:53:51;;;;;;;1999.90;999.90;;;;;;;12.11;100.00;99535.03;5022898;28;20029;-71
2022/11/04 09:56:24;;;;;;;1999.90;999.90;;;;;;;11.99;100.00;99536.22;5020916;28;20450;-71
2022/11/04 09:58:51;;;;;;;1999.90;999.90;;;;;;;11.91;100.00;99535.56;5025979;28;20053;-71
2022/11/04 10:01:38;;;;;;;1999.90;999.90;;;;;;;11.76;100.00;99540.34;5024915;28;20037;-71
2022/11/04 10:04:33;;;;;;;1999.90;999.90;;;;;;;11.70;100.00;99537.84;5027393;28;20068;-71
2022/11/04 10:07:15;;;;;;;1999.90;999.90;;;;;;;11.59;100.00;99548.72;5023215;28;20045;-71
2022/11/04 10:10:02;;;;;;;1999.90;999.90;;;;;;;11.53;100.00;99542.72;5027033;28;20056;-71
2022/11/04 10:13:04;;;;;;;1999.90;999.90;;;;;;;11.44;100.00;99558.81;5020063;28;20041;-72
2022/11/04 10:15:32;;;;;;;1999.90;999.90;;;;;;;11.36;100.00;99559.84;5022966;28;20045;-72
2022/11/04 10:18:18;;;;;;;1999.90;999.90;;;;;;;11.43;100.00;99568.50;5021815;28;20049;-72
2022/11/04 10:20:53;;;;;;;1999.90;999.90;;;;;;;11.41;100.00;99571.19;5027507;28;20037;-72
2022/11/04 10:23:25;;;;;;;1999.90;999.90;;;;;;;11.39;100.00;99574.75;5021313;28;20037;-72
2022/11/04 10:26:04;;;;;;;1999.90;999.90;;;;;;;11.34;100.00;99585.47;5021651;28;20061;-72
2022/11/04 10:28:35;;;;;;;1999.90;999.90;;;;;;;11.39;100.00;99593.25;5017810;28;20400;-73
2022/11/04 10:31:02;;;;;;;1999.90;999.90;;;;;;;11.45;100.00;99608.97;5019976;28;20041;-72
2022/11/04 10:33:33;;;;;;;1999.90;999.90;;;;;;;11.36;100.00;99610.03;5026949;28;20472;-72
2022/11/04 10:36:05;;;;;;;1999.90;999.90;;;;;;;11.38;100.00;99616.16;5022293;28;20096;-73
2022/11/04 10:38:50;;;;;;;1999.90;999.90;;;;;;;11.40;100.00;99611.72;5023714;28;20044;-73
2022/11/04 10:41:25;;;;;;;1999.90;999.90;;;;;;;11.36;100.00;99625.91;5024348;28;20030;-73
2022/11/04 10:43:56;;;;;;;1999.90;999.90;;;;;;;11.31;100.00;99622.50;5019545;28;20037;-73
2022/11/04 10:46:52;;;;;;;1999.90;999.90;;;;;;;11.39;100.00;99638.16;5022482;28;20128;-73
2022/11/04 10:49:37;;;;;;;1999.90;999.90;;;;;;;11.46;100.00;99646.84;5019948;28;20091;-73
2022/11/04 10:52:05;;;;;;;1999.90;999.90;;;;;;;11.50;100.00;99659.03;5019094;28;20029;-73
2022/11/04 10:54:41;;;;;;;1999.90;999.90;;;;;;;11.49;100.00;99646.75;5020091;28;20040;-73
2022/11/04 10:57:06;;;;;;;1999.90;999.90;;;;;;;11.42;100.00;99653.94;5023181;28;20041;-73
2022/11/04 10:59:50;;;;;;;1999.90;999.90;;;;;;;11.30;100.00;99655.13;5023431;28;20053;-73
2022/11/04 11:02:16;;;;;;;1999.90;999.90;;;;;;;11.25;100.00;99654.34;5022102;28;20037;-73
2022/11/04 11:04:44;;;;;;;1999.90;999.90;;;;;;;11.27;100.00;99649.91;5021628;28;20472;-73
2022/11/04 11:07:17;;;;;;;1999.90;999.90;;;;;;;11.29;100.00;99640.19;5043230;23;20136;-75
2022/11/04 11:09:45;;;;;;;1999.90;999.90;;;;;;;11.28;100.00;99642.84;5027415;28;20073;-75
2022/11/04 11:12:13;;;;;;;1999.90;999.90;;;;;;;11.30;100.00;99639.25;5027975;28;20068;-75
2022/11/04 11:14:40;;;;;;;1999.90;999.90;;;;;;;11.18;100.00;99634.25;5033409;28;20495;-75
2022/11/04 11:17:14;;;;;;;1999.90;999.90;;;;;;;11.14;100.00;99629.97;5025539;28;20086;-75
2022/11/04 11:20:04;;;;;;;1999.90;999.90;;;;;;;11.18;100.00;99636.91;5028471;28;20037;-73
2022/11/04 11:22:37;;;;;;;1999.90;999.90;;;;;;;11.06;100.00;99640.69;5026636;28;20052;-74
2022/11/04 11:25:31;;;;;;;1999.90;999.90;;;;;;;11.07;100.00;99644.19;5027290;28;20029;-74
2022/11/04 11:28:02;;;;;;;1999.90;999.90;;;;;;;11.01;100.00;99641.72;5024172;28;20403;-74